createdAt,value
2019-03-06T00:00:52.678Z,82.19
2019-03-06T00:03:23.749Z,81.96
2019-03-06T00:05:52.835Z,81.82
2019-03-06T00:08:22.520Z,81.91
2019-03-06T00:10:51.635Z,80.93
2019-03-06T00:13:23.847Z,79.11
2019-03-06T00:16:00.410Z,77.59
2019-03-06T00:18:30.836Z,77.50
2019-03-06T00:21:04.025Z,77.48
2019-03-06T00:23:35.988Z,76.75
2019-03-06T00:26:08.007Z,76.45
2019-03-06T00:28:40.213Z,76.40
2019-03-06T00:31:11.753Z,77.20
2019-03-06T00:33:42.402Z,77.30
2019-03-06T00:36:21.230Z,78.67
2019-03-06T00:38:53.566Z,78.99
2019-03-06T00:41:28.855Z,79.87
2019-03-06T00:43:59.403Z,80.34
2019-03-06T00:46:31.269Z,80.71
2019-03-06T00:49:02.158Z,81.50
2019-03-06T00:51:34.931Z,81.35
2019-03-06T00:54:04.042Z,79.90
2019-03-06T00:56:33.221Z,79.27
2019-03-06T00:59:02.338Z,79.14
2019-03-06T01:01:35.848Z,80.27
2019-03-06T01:04:06.894Z,80.17
2019-03-06T01:06:39.422Z,81.27
2019-03-06T01:09:08.734Z,81.40
2019-03-06T01:11:37.833Z,80.97
2019-03-06T01:14:09.816Z,79.30
2019-03-06T01:16:40.498Z,80.10
2019-03-06T01:19:09.598Z,80.35
2019-03-06T01:21:39.879Z,81.50
2019-03-06T01:24:13.369Z,80.90
2019-03-06T01:26:45.531Z,80.00
2019-03-06T01:29:19.161Z,79.94
2019-03-06T01:31:48.296Z,78.72
2019-03-06T01:34:50.887Z,79.02
2019-03-06T01:37:40.126Z,79.86
2019-03-06T01:40:23.652Z,80.30
2019-03-06T01:43:10.825Z,79.97
2019-03-06T01:45:49.184Z,78.77
2019-03-06T01:48:18.563Z,76.33
2019-03-06T01:50:49.011Z,77.70
2019-03-06T01:53:24.404Z,78.04
2019-03-06T01:55:53.498Z,77.97
2019-03-06T01:58:24.174Z,76.57
2019-03-06T02:00:55.795Z,73.00
2019-03-06T02:03:24.871Z,71.76
2019-03-06T02:06:00.749Z,72.86
2019-03-06T02:08:31.898Z,72.34
2019-03-06T02:11:00.768Z,71.87
2019-03-06T02:13:29.878Z,70.57
2019-03-06T02:16:00.499Z,73.03
2019-03-06T02:18:29.715Z,73.02
2019-03-06T02:20:59.297Z,75.11
2019-03-06T02:23:31.085Z,75.68
2019-03-06T02:26:00.594Z,73.72
2019-03-06T02:28:32.227Z,72.72
2019-03-06T02:31:01.431Z,74.45
2019-03-06T02:33:30.867Z,70.22
2019-03-06T02:36:01.736Z,69.34
2019-03-06T02:38:50.442Z,70.32
2019-03-06T02:41:20.876Z,69.05
2019-03-06T02:43:52.583Z,70.76
2019-03-06T02:46:21.693Z,72.27
2019-03-06T02:48:52.172Z,71.76
2019-03-06T02:51:21.193Z,72.66
2019-03-06T02:53:52.764Z,73.13
2019-03-06T02:56:21.893Z,77.80
2019-03-06T02:59:10.313Z,79.63
2019-03-06T03:02:00.739Z,80.39
2019-03-06T03:04:50.518Z,79.73
2019-03-06T03:07:27.024Z,80.30
2019-03-06T03:09:57.288Z,81.44
2019-03-06T03:12:26.468Z,81.13
2019-03-06T03:14:57.223Z,79.98
2019-03-06T03:17:26.413Z,79.43
2019-03-06T03:19:56.923Z,78.39
2019-03-06T03:22:25.930Z,78.19
2019-03-06T03:24:57.920Z,79.10
2019-03-06T03:27:35.909Z,79.92
2019-03-06T03:30:09.037Z,78.55
2019-03-06T03:32:45.266Z,78.03
2019-03-06T03:35:20.778Z,78.85
2019-03-06T03:37:50.215Z,77.80
2019-03-06T03:40:23.696Z,79.51
2019-03-06T03:42:55.492Z,80.05
2019-03-06T03:45:24.583Z,80.85
2019-03-06T03:47:54.456Z,80.49
2019-03-06T03:50:24.182Z,81.36
2019-03-06T03:52:53.314Z,81.59
2019-03-06T03:55:23.467Z,81.81
2019-03-06T03:57:53.596Z,82.08
2019-03-06T04:00:23.802Z,81.78
2019-03-06T04:02:53.624Z,80.77
2019-03-06T04:05:24.039Z,80.44
2019-03-06T04:07:53.322Z,80.00
2019-03-06T04:10:25.698Z,79.93
2019-03-06T04:12:55.196Z,79.99
2019-03-06T04:15:24.863Z,79.06
2019-03-06T04:17:58.464Z,80.23
2019-03-06T04:20:29.372Z,80.42
2019-03-06T04:23:00.958Z,79.04
2019-03-06T04:25:32.012Z,79.58
2019-03-06T04:28:01.085Z,80.32
2019-03-06T04:30:30.576Z,80.54
2019-03-06T04:33:06.182Z,79.70
2019-03-06T04:35:35.270Z,79.92
2019-03-06T04:38:04.730Z,79.02
2019-03-06T04:40:33.809Z,80.87
2019-03-06T04:43:04.461Z,79.21
2019-03-06T04:45:34.440Z,78.48
2019-03-06T04:48:03.565Z,79.21
2019-03-06T04:50:32.675Z,79.09
2019-03-06T04:53:01.834Z,80.15
2019-03-06T04:55:32.414Z,80.52
2019-03-06T04:58:04.289Z,82.01
2019-03-06T05:00:35.900Z,82.38
2019-03-06T05:03:05.020Z,82.09
2019-03-06T05:05:35.232Z,81.49
2019-03-06T05:08:05.775Z,81.75
2019-03-06T05:10:38.087Z,82.40
2019-03-06T05:13:07.177Z,81.09
2019-03-06T05:15:36.286Z,80.51
2019-03-06T05:18:30.725Z,79.81
2019-03-06T05:21:00.374Z,79.92
2019-03-06T05:23:30.121Z,81.28
2019-03-06T05:25:59.174Z,81.40
2019-03-06T05:28:32.488Z,81.44
2019-03-06T05:31:04.832Z,80.63
2019-03-06T05:33:33.926Z,80.38
2019-03-06T05:36:35.111Z,79.87
2019-03-06T05:39:11.384Z,79.18
2019-03-06T05:41:41.659Z,78.97
2019-03-06T05:44:10.793Z,78.28
2019-03-06T05:46:39.989Z,77.94
2019-03-06T05:49:10.664Z,77.47
2019-03-06T05:51:40.796Z,78.51
2019-03-06T05:54:10.460Z,78.44
2019-03-06T05:56:40.945Z,78.81
2019-03-06T05:59:11.302Z,79.17
2019-03-06T06:01:42.144Z,78.83
2019-03-06T06:04:11.329Z,79.70
2019-03-06T06:06:40.520Z,81.10
2019-03-06T06:09:10.863Z,80.76
2019-03-06T06:11:43.918Z,82.19
2019-03-06T06:14:13.626Z,81.70
2019-03-06T06:16:56.047Z,82.25
2019-03-06T06:19:27.670Z,81.31
2019-03-06T06:22:21.052Z,80.94
2019-03-06T06:25:00.787Z,81.05
2019-03-06T06:27:30.911Z,80.46
2019-03-06T06:30:00.250Z,81.38
2019-03-06T06:32:43.086Z,80.92
2019-03-06T06:35:13.751Z,81.64
2019-03-06T06:37:43.997Z,81.48
2019-03-06T06:40:16.743Z,82.53
2019-03-06T06:42:48.418Z,82.57
2019-03-06T06:45:17.572Z,82.73
2019-03-06T06:48:24.903Z,82.72
2019-03-06T06:51:32.957Z,83.27
2019-03-06T06:54:22.919Z,82.49
2019-03-06T06:57:23.597Z,82.04
2019-03-06T07:00:19.102Z,81.78
2019-03-06T07:03:48.082Z,81.94
2019-03-06T07:06:35.673Z,82.50
2019-03-06T07:09:23.364Z,82.43
2019-03-06T07:12:02.333Z,83.32
2019-03-06T07:14:42.324Z,83.03
2019-03-06T07:17:28.553Z,82.85
2019-03-06T07:20:14.744Z,82.69
2019-03-06T07:23:12.505Z,82.21
2019-03-06T07:26:00.394Z,82.19
2019-03-06T07:28:39.814Z,81.80
2019-03-06T07:31:44.497Z,81.96
2019-03-06T07:34:45.030Z,82.41
2019-03-06T07:37:28.375Z,81.46
2019-03-06T07:39:57.636Z,81.95
2019-03-06T07:42:51.877Z,81.78
2019-03-06T07:46:02.391Z,81.21
2019-03-06T07:49:09.419Z,80.99
2019-03-06T07:52:15.391Z,79.96
2019-03-06T07:55:11.027Z,80.98
2019-03-06T07:58:16.453Z,80.79
2019-03-06T08:00:51.814Z,80.51
2019-03-06T08:03:41.376Z,79.00
2019-03-06T08:06:11.768Z,78.47
2019-03-06T08:08:41.744Z,77.34
2019-03-06T08:11:17.539Z,77.25
2019-03-06T08:14:01.117Z,76.87
2019-03-06T08:16:52.505Z,75.86
2019-03-06T08:19:38.991Z,75.95
2019-03-06T08:22:25.778Z,75.45
2019-03-06T08:25:02.372Z,75.44
2019-03-06T08:27:33.698Z,75.08
2019-03-06T08:30:07.534Z,73.87
2019-03-06T08:32:37.295Z,73.43
2019-03-06T08:35:08.117Z,73.38
2019-03-06T08:37:37.281Z,72.69
2019-03-06T08:40:08.171Z,72.63
2019-03-06T08:42:37.806Z,73.35
2019-03-06T08:45:07.902Z,71.50
2019-03-06T08:48:01.553Z,71.46
2019-03-06T08:50:49.720Z,71.93
2019-03-06T08:53:33.546Z,71.04
2019-03-06T08:56:18.124Z,69.99
2019-03-06T08:59:18.777Z,69.74
2019-03-06T09:02:15.746Z,68.74
2019-03-06T09:05:12.163Z,68.72
2019-03-06T09:08:09.686Z,68.39
2019-03-06T09:10:50.865Z,68.27
2019-03-06T09:13:29.270Z,68.51
2019-03-06T09:16:17.236Z,68.43
2019-03-06T09:19:22.454Z,68.69
2019-03-06T09:22:10.797Z,68.84
2019-03-06T09:25:12.587Z,68.82
2019-03-06T09:28:20.576Z,68.52
2019-03-06T09:31:02.754Z,68.02
2019-03-06T09:33:49.584Z,66.85
2019-03-06T09:36:44.634Z,66.35
2019-03-06T09:39:42.437Z,65.07
2019-03-06T09:42:35.679Z,65.79
2019-03-06T09:45:27.407Z,66.09
2019-03-06T09:48:30.942Z,65.59
2019-03-06T09:51:22.277Z,66.01
2019-03-06T09:54:19.368Z,66.77
2019-03-06T09:57:07.603Z,65.83
2019-03-06T10:00:02.000Z,67.21
2019-03-06T10:02:59.595Z,66.97
2019-03-06T10:06:05.639Z,67.33
2019-03-06T10:08:52.418Z,66.30
2019-03-06T10:11:35.528Z,66.42
2019-03-06T10:14:18.173Z,66.24
2019-03-06T10:17:02.030Z,66.81
2019-03-06T10:19:37.239Z,66.85
2019-03-06T10:22:06.840Z,66.57
2019-03-06T10:24:39.650Z,65.84
2019-03-06T10:27:12.141Z,66.33
2019-03-06T10:29:41.451Z,65.85
2019-03-06T10:32:14.577Z,65.10
2019-03-06T10:34:46.564Z,65.18
2019-03-06T10:37:18.162Z,64.47
2019-03-06T10:39:51.145Z,64.32
2019-03-06T10:42:20.487Z,64.07
2019-03-06T10:44:49.914Z,63.86
2019-03-06T10:47:31.822Z,63.81
2019-03-06T10:50:02.295Z,63.97
2019-03-06T10:52:33.886Z,63.87
2019-03-06T10:55:05.116Z,63.69
2019-03-06T10:57:35.300Z,62.79
2019-03-06T11:00:10.781Z,62.76
2019-03-06T11:02:41.426Z,63.08
2019-03-06T11:05:40.586Z,63.95
2019-03-06T11:08:10.332Z,64.15
2019-03-06T11:10:41.300Z,63.27
2019-03-06T11:13:18.140Z,62.95
2019-03-06T11:15:55.749Z,63.17
2019-03-06T11:18:22.471Z,63.43
2019-03-06T11:21:05.041Z,61.92
2019-03-06T11:23:35.593Z,61.19
2019-03-06T11:26:07.524Z,60.84
2019-03-06T11:28:38.107Z,61.60
2019-03-06T11:31:09.855Z,59.53
2019-03-06T11:33:41.727Z,59.94
2019-03-06T11:36:11.311Z,59.93
2019-03-06T11:38:44.356Z,58.79
2019-03-06T11:41:16.718Z,58.29
2019-03-06T11:43:45.898Z,57.44
2019-03-06T11:46:20.976Z,55.03
2019-03-06T11:48:50.134Z,54.16
2019-03-06T11:51:23.153Z,53.33
2019-03-06T11:53:52.633Z,52.73
2019-03-06T11:56:26.106Z,51.10
2019-03-06T11:59:01.193Z,51.36
2019-03-06T12:01:32.079Z,50.94
2019-03-06T12:04:01.477Z,49.71
2019-03-06T12:06:31.938Z,48.62
2019-03-06T12:09:08.395Z,47.17
2019-03-06T12:11:37.568Z,47.01
2019-03-06T12:14:07.199Z,45.59
2019-03-06T12:16:41.788Z,45.29
2019-03-06T12:19:08.159Z,44.58
2019-03-06T12:21:37.406Z,44.61
2019-03-06T12:24:07.060Z,44.47
2019-03-06T12:26:38.047Z,44.79
2019-03-06T12:29:10.591Z,44.01
2019-03-06T12:31:40.018Z,43.83
2019-03-06T12:34:11.223Z,42.26
2019-03-06T12:36:41.714Z,42.94
2019-03-06T12:39:14.613Z,42.41
2019-03-06T12:41:50.363Z,42.80
2019-03-06T12:44:19.463Z,40.50
2019-03-06T12:46:53.182Z,40.87
2019-03-06T12:49:36.551Z,41.09
2019-03-06T12:52:07.645Z,40.17
2019-03-06T12:54:43.262Z,40.39
2019-03-06T12:57:12.444Z,40.06
2019-03-06T12:59:42.021Z,37.62
2019-03-06T13:02:13.867Z,38.43
2019-03-06T13:04:53.506Z,38.45
2019-03-06T13:07:34.012Z,39.04
2019-03-06T13:10:03.407Z,39.27
2019-03-06T13:12:32.811Z,39.41
2019-03-06T13:15:06.430Z,39.00
2019-03-06T13:17:36.414Z,39.05
2019-03-06T13:20:11.164Z,38.95
2019-03-06T13:22:40.636Z,38.05
2019-03-06T13:25:13.958Z,38.29
2019-03-06T13:27:55.173Z,38.80
2019-03-06T13:30:27.510Z,39.15
2019-03-06T13:33:23.439Z,39.18
2019-03-06T13:36:05.826Z,38.92
2019-03-06T13:38:37.684Z,37.67
2019-03-06T13:41:07.304Z,38.85
2019-03-06T13:43:40.433Z,37.29
2019-03-06T13:46:11.133Z,36.59
2019-03-06T13:48:40.905Z,36.54
2019-03-06T13:51:12.877Z,37.10
2019-03-06T13:53:50.916Z,37.52
2019-03-06T13:56:25.476Z,37.84
2019-03-06T13:58:56.685Z,38.00
2019-03-06T14:01:29.606Z,37.78
2019-03-06T14:03:59.980Z,38.37
2019-03-06T14:06:38.577Z,37.87
2019-03-06T14:09:09.743Z,37.67
2019-03-06T14:11:39.094Z,38.76
2019-03-06T14:14:10.769Z,38.96
2019-03-06T14:16:40.232Z,40.43
2019-03-06T14:19:14.508Z,39.95
2019-03-06T14:22:01.467Z,40.58
2019-03-06T14:24:31.451Z,39.55
2019-03-06T14:27:09.040Z,39.97
2019-03-06T14:29:41.055Z,39.56
2019-03-06T14:32:14.686Z,39.18
2019-03-06T14:34:41.258Z,41.18
2019-03-06T14:37:12.047Z,40.54
2019-03-06T14:39:47.416Z,39.91
2019-03-06T14:42:18.449Z,39.65
2019-03-06T14:44:51.534Z,39.58
2019-03-06T14:47:21.474Z,41.25
2019-03-06T14:49:50.680Z,41.52
2019-03-06T14:52:19.870Z,41.82
2019-03-06T14:54:50.506Z,42.46
2019-03-06T14:57:25.549Z,42.47
2019-03-06T14:59:54.897Z,40.82
2019-03-06T15:02:24.108Z,41.72
2019-03-06T15:04:55.753Z,42.62
2019-03-06T15:07:31.015Z,42.23
2019-03-06T15:10:00.820Z,41.66
2019-03-06T15:12:32.449Z,41.85
2019-03-06T15:15:01.129Z,41.42
2019-03-06T15:17:30.293Z,43.06
2019-03-06T15:19:59.460Z,43.38
2019-03-06T15:22:28.613Z,41.60
2019-03-06T15:24:57.728Z,43.45
2019-03-06T15:27:30.296Z,43.25
2019-03-06T15:29:59.560Z,43.42
2019-03-06T15:32:28.894Z,43.21
2019-03-06T15:34:59.391Z,44.47
2019-03-06T15:37:37.848Z,44.74
2019-03-06T15:40:10.802Z,44.02
2019-03-06T15:42:40.480Z,43.58
2019-03-06T15:45:12.474Z,43.57
2019-03-06T15:47:44.114Z,45.61
2019-03-06T15:50:14.116Z,44.48
2019-03-06T15:52:45.418Z,44.56
2019-03-06T15:55:20.123Z,44.68
2019-03-06T15:57:49.265Z,43.87
2019-03-06T16:00:28.265Z,45.28
2019-03-06T16:02:57.869Z,46.20
2019-03-06T16:05:30.597Z,46.43
2019-03-06T16:08:00.013Z,46.48
2019-03-06T16:10:30.020Z,45.84
2019-03-06T16:13:01.891Z,45.60
2019-03-06T16:15:31.653Z,45.52
2019-03-06T16:18:02.243Z,45.41
2019-03-06T16:20:35.129Z,46.61
2019-03-06T16:23:05.129Z,48.88
2019-03-06T16:25:41.861Z,47.48
2019-03-06T16:28:11.062Z,49.40
2019-03-06T16:30:40.822Z,48.65
2019-03-06T16:33:10.098Z,48.95
2019-03-06T16:35:40.686Z,48.42
2019-03-06T16:38:10.252Z,48.90
2019-03-06T16:40:40.895Z,47.61
2019-03-06T16:43:12.697Z,47.86
2019-03-06T16:45:46.643Z,46.81
2019-03-06T16:48:15.783Z,46.48
2019-03-06T16:50:46.909Z,48.08
2019-03-06T16:53:18.394Z,46.95
2019-03-06T16:55:47.790Z,46.49
2019-03-06T16:58:17.197Z,46.00
2019-03-06T17:00:49.774Z,45.22
2019-03-06T17:03:18.903Z,44.84
2019-03-06T17:05:54.582Z,47.84
2019-03-06T17:08:23.532Z,48.43
2019-03-06T17:10:52.990Z,50.34
2019-03-06T17:13:22.140Z,50.94
2019-03-06T17:15:54.655Z,49.03
2019-03-06T17:18:28.263Z,50.07
2019-03-06T17:20:58.207Z,49.37
2019-03-06T17:23:28.611Z,47.99
2019-03-06T17:25:58.315Z,49.10
2019-03-06T17:28:27.532Z,48.05
2019-03-06T17:30:57.415Z,48.60
2019-03-06T17:33:32.739Z,48.92
2019-03-06T17:36:01.987Z,46.76
2019-03-06T17:38:33.749Z,46.37
2019-03-06T17:41:02.968Z,46.82
2019-03-06T17:43:32.724Z,45.89
2019-03-06T17:46:09.210Z,47.67
2019-03-06T17:48:39.434Z,46.94
2019-03-06T17:51:11.394Z,48.15
2019-03-06T17:53:41.896Z,47.58
2019-03-06T17:56:11.192Z,46.57
2019-03-06T17:58:41.641Z,47.14
2019-03-06T18:01:15.294Z,47.68
2019-03-06T18:04:12.913Z,47.31
2019-03-06T18:06:46.409Z,47.11
2019-03-06T18:09:24.123Z,47.06
2019-03-06T18:11:53.324Z,45.84
2019-03-06T18:14:26.707Z,46.43
2019-03-06T18:16:55.928Z,47.07
2019-03-06T18:19:28.091Z,46.19
2019-03-06T18:21:57.292Z,44.98
2019-03-06T18:24:29.254Z,45.16
2019-03-06T18:27:05.335Z,44.31
2019-03-06T18:29:34.473Z,44.42
2019-03-06T18:32:06.158Z,45.24
2019-03-06T18:34:35.281Z,44.04
2019-03-06T18:37:04.432Z,44.70
2019-03-06T18:39:34.691Z,44.64
2019-03-06T18:42:11.383Z,44.45
2019-03-06T18:44:40.714Z,43.50
2019-03-06T18:47:09.888Z,44.37
2019-03-06T18:49:42.359Z,44.92
2019-03-06T18:52:11.823Z,43.84
2019-03-06T18:54:41.080Z,43.48
2019-03-06T18:57:13.389Z,44.05
2019-03-06T18:59:45.617Z,44.25
2019-03-06T19:02:14.989Z,45.24
2019-03-06T19:04:44.490Z,45.03
2019-03-06T19:07:14.816Z,46.93
2019-03-06T19:09:44.010Z,47.48
2019-03-06T19:12:13.201Z,47.57
2019-03-06T19:14:42.591Z,48.39
2019-03-06T19:17:16.254Z,49.34
2019-03-06T19:19:48.210Z,49.16
2019-03-06T19:22:17.344Z,50.05
2019-03-06T19:24:48.198Z,49.53
2019-03-06T19:27:17.810Z,49.01
2019-03-06T19:29:49.599Z,49.42
2019-03-06T19:32:18.814Z,49.47
2019-03-06T19:34:49.630Z,48.79
2019-03-06T19:37:20.192Z,48.74
2019-03-06T19:39:55.117Z,48.72
2019-03-06T19:42:24.269Z,47.69
2019-03-06T19:44:56.636Z,47.97
2019-03-06T19:47:25.799Z,47.47
2019-03-06T19:49:54.909Z,47.61
2019-03-06T19:52:24.046Z,47.67
2019-03-06T19:54:57.127Z,48.52
2019-03-06T19:57:28.060Z,48.42
2019-03-06T20:00:01.695Z,49.18
2019-03-06T20:02:30.990Z,50.25
2019-03-06T20:05:08.326Z,49.54
2019-03-06T20:07:47.228Z,50.08
2019-03-06T20:10:16.539Z,50.43
2019-03-06T20:12:45.925Z,49.90
2019-03-06T20:15:17.738Z,49.22
2019-03-06T20:17:48.124Z,48.88
2019-03-06T20:20:18.462Z,49.57
2019-03-06T20:22:49.652Z,49.18
2019-03-06T20:25:23.709Z,49.03
2019-03-06T20:27:56.807Z,48.69
2019-03-06T20:30:29.721Z,48.64
2019-03-06T20:33:03.415Z,49.13
2019-03-06T20:35:34.393Z,48.99
2019-03-06T20:38:03.530Z,48.29
2019-03-06T20:40:35.249Z,48.20
2019-03-06T20:43:04.443Z,46.27
2019-03-06T20:45:34.414Z,48.29
2019-03-06T20:48:05.595Z,47.47
2019-03-06T20:50:34.801Z,48.08
2019-03-06T20:53:04.030Z,47.81
2019-03-06T20:55:35.548Z,47.78
2019-03-06T20:58:06.919Z,47.71
2019-03-06T21:00:37.147Z,47.71
2019-03-06T21:03:08.782Z,47.78
2019-03-06T21:05:37.880Z,46.73
2019-03-06T21:08:09.094Z,48.10
2019-03-06T21:10:38.001Z,47.64
2019-03-06T21:13:08.247Z,48.03
2019-03-06T21:15:41.225Z,48.02
2019-03-06T21:18:11.183Z,47.45
2019-03-06T21:20:41.614Z,47.14
2019-03-06T21:23:13.271Z,47.21
2019-03-06T21:25:43.847Z,46.83
2019-03-06T21:28:14.457Z,46.87
2019-03-06T21:30:43.751Z,46.32
2019-03-06T21:33:17.520Z,46.51
2019-03-06T21:35:46.744Z,44.49
2019-03-06T21:38:20.656Z,45.84
2019-03-06T21:40:51.078Z,45.83
2019-03-06T21:43:20.211Z,45.84
2019-03-06T21:45:51.063Z,45.46
2019-03-06T21:48:20.157Z,44.24
2019-03-06T21:50:50.404Z,44.32
2019-03-06T21:53:20.003Z,44.15
2019-03-06T21:55:50.982Z,44.75
2019-03-06T21:58:20.099Z,44.62
2019-03-06T22:00:55.260Z,45.85
2019-03-06T22:03:25.594Z,46.22
2019-03-06T22:06:03.643Z,46.48
2019-03-06T22:08:34.396Z,46.21
2019-03-06T22:11:03.624Z,45.60
2019-03-06T22:13:32.752Z,45.95
2019-03-06T22:16:01.855Z,46.64
2019-03-06T22:18:30.965Z,46.01
2019-03-06T22:21:01.183Z,46.93
2019-03-06T22:23:40.797Z,47.13
2019-03-06T22:26:11.241Z,47.37
2019-03-06T22:28:40.591Z,47.44
2019-03-06T22:31:09.838Z,47.25
2019-03-06T22:33:42.951Z,47.78
2019-03-06T22:36:12.048Z,47.80
2019-03-06T22:38:41.178Z,47.89
2019-03-06T22:41:10.337Z,46.84
2019-03-06T22:43:39.450Z,47.36
2019-03-06T22:46:08.612Z,46.94
2019-03-06T22:48:38.069Z,47.83
2019-03-06T22:51:13.382Z,47.17
2019-03-06T22:53:42.473Z,46.79
2019-03-06T22:56:12.755Z,45.79
2019-03-06T22:58:41.842Z,46.18
2019-03-06T23:01:29.080Z,45.99
2019-03-06T23:04:01.656Z,45.92
2019-03-06T23:06:31.179Z,47.42
2019-03-06T23:09:01.766Z,47.03
2019-03-06T23:11:32.289Z,46.88
2019-03-06T23:14:01.388Z,47.88
2019-03-06T23:16:30.504Z,48.69
2019-03-06T23:19:02.792Z,48.48
2019-03-06T23:21:35.030Z,48.59
2019-03-06T23:24:07.547Z,48.67
2019-03-06T23:26:43.029Z,48.43
2019-03-06T23:29:12.551Z,48.91
2019-03-06T23:31:45.301Z,49.59
2019-03-06T23:34:14.470Z,50.98
2019-03-06T23:36:45.082Z,51.42
2019-03-06T23:39:14.277Z,51.24
2019-03-06T23:41:50.967Z,51.62
2019-03-06T23:44:20.131Z,51.78
2019-03-06T23:46:51.151Z,51.90
2019-03-06T23:49:20.309Z,52.12
2019-03-06T23:52:01.489Z,52.74
2019-03-06T23:54:33.881Z,52.37
2019-03-06T23:57:03.009Z,52.97
2019-03-06T23:59:32.126Z,53.12
